createdAt,value
2023-01-29T00:01:17.249Z,16.05
2023-01-29T00:03:51.696Z,19.58
2023-01-29T00:06:24.853Z,17.55
2023-01-29T00:08:58.021Z,19.00
2023-01-29T00:11:31.990Z,18.60
2023-01-29T00:14:04.779Z,20.52
2023-01-29T00:16:37.667Z,20.38
2023-01-29T00:19:10.271Z,22.42
2023-01-29T00:21:43.591Z,19.00
2023-01-29T00:24:16.194Z,16.08
2023-01-29T00:26:50.312Z,13.32
2023-01-29T00:29:22.777Z,10.55
2023-01-29T00:31:55.605Z,18.13
2023-01-29T00:34:28.157Z,20.65
2023-01-29T00:37:04.772Z,14.23
2023-01-29T00:39:47.724Z,18.85
2023-01-29T00:42:39.337Z,14.43
2023-01-29T00:45:13.010Z,14.90
2023-01-29T00:47:46.086Z,18.92
2023-01-29T00:50:18.958Z,19.80
2023-01-29T00:52:52.985Z,15.00
2023-01-29T00:55:25.475Z,12.43
2023-01-29T00:57:58.201Z,21.75
2023-01-29T01:00:30.797Z,13.57
2023-01-29T01:03:06.266Z,19.65
2023-01-29T01:05:39.310Z,15.20
2023-01-29T01:08:30.517Z,13.52
2023-01-29T01:11:05.660Z,12.10
2023-01-29T01:13:38.370Z,11.45
2023-01-29T01:16:16.447Z,12.65
2023-01-29T01:18:49.250Z,16.75
2023-01-29T01:21:21.726Z,12.10
2023-01-29T01:23:54.620Z,13.77
2023-01-29T01:26:27.283Z,13.23
2023-01-29T01:29:00.014Z,11.38
2023-01-29T01:31:32.565Z,15.50
2023-01-29T01:34:05.389Z,12.98
2023-01-29T01:36:37.894Z,8.88
2023-01-29T01:39:10.686Z,12.57
2023-01-29T01:41:43.158Z,13.93
2023-01-29T01:45:12.969Z,10.65
2023-01-29T01:47:49.053Z,9.90
2023-01-29T01:50:33.016Z,14.20
2023-01-29T01:53:10.977Z,16.85
2023-01-29T01:55:54.158Z,13.82
2023-01-29T01:58:39.266Z,12.32
2023-01-29T02:01:12.896Z,12.88
2023-01-29T02:04:13.744Z,11.10
2023-01-29T02:07:05.446Z,15.77
2023-01-29T02:09:46.257Z,12.43
2023-01-29T02:12:21.045Z,10.57
2023-01-29T02:14:53.552Z,10.50
2023-01-29T02:17:26.759Z,12.25
2023-01-29T02:20:14.163Z,8.10
2023-01-29T02:22:56.473Z,9.88
2023-01-29T02:26:00.855Z,10.35
2023-01-29T02:28:56.622Z,11.38
2023-01-29T02:31:35.057Z,5.93
2023-01-29T02:34:27.761Z,7.60
2023-01-29T02:37:09.735Z,6.53
2023-01-29T02:39:53.625Z,12.10
2023-01-29T02:42:39.180Z,8.38
2023-01-29T02:45:11.964Z,7.60
2023-01-29T02:47:58.619Z,6.38
2023-01-29T02:50:58.002Z,8.15
2023-01-29T02:53:51.676Z,10.65
2023-01-29T02:56:36.888Z,10.52
2023-01-29T02:59:17.464Z,13.00
2023-01-29T03:01:58.613Z,9.95
2023-01-29T03:04:36.539Z,18.10
2023-01-29T03:07:45.953Z,5.70
2023-01-29T03:10:38.708Z,11.68
2023-01-29T03:13:33.875Z,9.73
2023-01-29T03:16:22.523Z,13.43
2023-01-29T03:19:00.404Z,9.55
2023-01-29T03:22:14.419Z,10.65
2023-01-29T03:25:15.372Z,7.95
2023-01-29T03:28:06.489Z,7.68
2023-01-29T03:31:21.640Z,10.05
2023-01-29T03:34:09.833Z,10.15
2023-01-29T03:37:00.057Z,6.55
2023-01-29T03:39:32.544Z,10.13
2023-01-29T03:42:12.413Z,7.25
2023-01-29T03:44:49.027Z,6.05
2023-01-29T03:47:37.928Z,6.43
2023-01-29T03:50:25.164Z,8.23
2023-01-29T03:53:06.975Z,7.70
2023-01-29T03:56:35.741Z,7.63
2023-01-29T03:59:14.178Z,6.57
2023-01-29T04:02:00.603Z,8.95
2023-01-29T04:04:36.914Z,8.63
2023-01-29T04:07:16.758Z,6.75
2023-01-29T04:09:55.930Z,5.35
2023-01-29T04:12:56.800Z,8.60
2023-01-29T04:15:34.679Z,5.50
2023-01-29T04:18:07.332Z,8.05
2023-01-29T04:20:40.631Z,3.75
2023-01-29T04:23:25.028Z,4.28
2023-01-29T04:26:25.138Z,9.48
2023-01-29T04:29:22.524Z,3.28
2023-01-29T04:32:38.018Z,3.83
2023-01-29T04:35:36.275Z,5.38
2023-01-29T04:38:38.495Z,4.40
2023-01-29T04:41:43.444Z,7.65
2023-01-29T04:44:23.091Z,4.45
2023-01-29T04:47:16.688Z,9.57
2023-01-29T04:50:08.192Z,4.15
2023-01-29T04:53:04.487Z,3.72
2023-01-29T04:56:01.820Z,4.85
2023-01-29T04:58:44.652Z,2.92
2023-01-29T05:01:20.089Z,4.43
2023-01-29T05:03:55.928Z,4.35
2023-01-29T05:06:31.400Z,9.20
2023-01-29T05:09:04.039Z,4.30
2023-01-29T05:11:37.735Z,6.45
2023-01-29T05:14:14.761Z,8.65
2023-01-29T05:16:52.528Z,6.15
2023-01-29T05:19:25.010Z,5.05
2023-01-29T05:21:58.754Z,4.40
2023-01-29T05:24:31.485Z,6.57
2023-01-29T05:27:23.047Z,6.93
2023-01-29T05:29:56.610Z,3.90
2023-01-29T05:32:29.393Z,5.25
2023-01-29T05:35:01.944Z,4.82
2023-01-29T05:37:35.040Z,4.97
2023-01-29T05:40:08.874Z,7.95
2023-01-29T05:42:42.052Z,22.73
2023-01-29T05:45:14.559Z,8.40
2023-01-29T05:47:47.715Z,7.95
2023-01-29T05:50:20.144Z,7.68
2023-01-29T05:53:00.283Z,6.40
2023-01-29T05:55:32.879Z,9.38
2023-01-29T05:58:06.355Z,5.75
2023-01-29T06:00:39.302Z,11.00
2023-01-29T06:03:12.060Z,8.80
2023-01-29T06:05:44.734Z,10.60
2023-01-29T06:08:17.527Z,6.95
2023-01-29T06:10:49.962Z,8.40
2023-01-29T06:13:23.705Z,7.88
2023-01-29T06:15:56.411Z,10.30
2023-01-29T06:18:29.223Z,10.05
2023-01-29T06:21:02.975Z,7.65
2023-01-29T06:23:35.901Z,9.70
2023-01-29T06:26:11.874Z,6.75
2023-01-29T06:28:46.029Z,15.13
2023-01-29T06:31:37.825Z,8.45
2023-01-29T06:34:11.608Z,9.93
2023-01-29T06:36:44.178Z,7.53
2023-01-29T06:39:16.914Z,6.07
2023-01-29T06:41:49.423Z,10.55
2023-01-29T06:44:22.269Z,10.50
2023-01-29T06:46:54.765Z,9.35
2023-01-29T06:49:27.497Z,6.15
2023-01-29T06:52:00.085Z,10.20
2023-01-29T06:54:32.921Z,9.65
2023-01-29T06:57:05.437Z,7.47
2023-01-29T06:59:38.161Z,10.25
2023-01-29T07:02:10.852Z,10.10
2023-01-29T07:04:43.738Z,14.18
2023-01-29T07:07:16.201Z,13.38
2023-01-29T07:09:49.205Z,11.15
2023-01-29T07:12:21.693Z,10.30
2023-01-29T07:14:54.437Z,6.68
2023-01-29T07:17:26.933Z,8.05
2023-01-29T07:19:59.916Z,9.70
2023-01-29T07:22:32.739Z,14.13
2023-01-29T07:25:06.133Z,8.77
2023-01-29T07:27:38.629Z,12.80
2023-01-29T07:30:11.964Z,18.45
2023-01-29T07:32:44.465Z,6.80
2023-01-29T07:35:17.337Z,10.70
2023-01-29T07:37:50.599Z,11.27
2023-01-29T07:40:23.409Z,8.75
2023-01-29T07:43:00.301Z,10.05
2023-01-29T07:45:35.380Z,10.02
2023-01-29T07:48:10.548Z,17.25
2023-01-29T07:50:44.120Z,14.15
2023-01-29T07:53:16.787Z,11.05
2023-01-29T07:55:49.817Z,14.70
2023-01-29T07:58:22.545Z,14.18
2023-01-29T08:00:55.379Z,11.23
2023-01-29T08:03:27.853Z,15.50
2023-01-29T08:06:00.653Z,9.80
2023-01-29T08:08:33.288Z,10.80
2023-01-29T08:11:06.211Z,19.50
2023-01-29T08:13:38.926Z,12.27
2023-01-29T08:16:13.702Z,12.20
2023-01-29T08:18:48.969Z,14.23
2023-01-29T08:21:21.716Z,11.98
2023-01-29T08:23:54.198Z,13.75
2023-01-29T08:26:27.439Z,15.65
2023-01-29T08:28:59.940Z,9.82
2023-01-29T08:31:33.580Z,10.68
2023-01-29T08:34:06.172Z,14.02
2023-01-29T08:36:39.179Z,14.02
2023-01-29T08:39:11.729Z,11.60
2023-01-29T08:41:44.513Z,13.80
2023-01-29T08:44:17.028Z,9.70
2023-01-29T08:46:49.995Z,15.95
2023-01-29T08:49:22.516Z,11.07
2023-01-29T08:51:56.919Z,15.70
2023-01-29T08:54:29.588Z,16.23
2023-01-29T08:57:02.537Z,14.05
2023-01-29T08:59:35.048Z,11.63
2023-01-29T09:02:09.290Z,12.95
2023-01-29T09:04:41.915Z,12.18
2023-01-29T09:07:14.665Z,19.08
2023-01-29T09:09:47.327Z,15.73
2023-01-29T09:12:20.054Z,13.07
2023-01-29T09:14:52.606Z,14.23
2023-01-29T09:17:25.347Z,14.05
2023-01-29T09:19:59.358Z,14.60
2023-01-29T09:22:32.458Z,17.77
2023-01-29T09:25:05.411Z,16.48
2023-01-29T09:27:38.155Z,21.75
2023-01-29T09:30:11.382Z,9.93
2023-01-29T09:32:53.132Z,15.93
2023-01-29T09:35:26.454Z,15.07
2023-01-29T09:37:59.299Z,18.58
2023-01-29T09:40:41.334Z,14.60
2023-01-29T09:43:18.425Z,13.52
2023-01-29T09:46:18.323Z,15.35
2023-01-29T09:51:37.613Z,13.00
2023-01-29T09:54:34.251Z,13.32
2023-01-29T09:57:14.891Z,13.43
2023-01-29T09:59:47.716Z,13.65
2023-01-29T10:02:37.770Z,15.65
2023-01-29T10:05:53.064Z,14.73
2023-01-29T10:09:00.729Z,12.57
2023-01-29T10:12:10.474Z,12.90
2023-01-29T10:14:58.528Z,17.83
2023-01-29T10:17:52.358Z,15.70
2023-01-29T10:20:30.324Z,16.15
2023-01-29T10:23:31.486Z,15.43
2023-01-29T10:26:04.945Z,21.33
2023-01-29T10:28:46.702Z,11.73
2023-01-29T10:31:29.437Z,22.77
2023-01-29T10:34:21.498Z,24.30
2023-01-29T10:36:56.996Z,17.15
2023-01-29T10:39:31.185Z,20.98
2023-01-29T10:42:15.296Z,13.95
2023-01-29T10:44:53.628Z,22.40
2023-01-29T10:47:46.570Z,24.40
2023-01-29T10:50:39.090Z,21.45
2023-01-29T10:53:29.496Z,15.13
2023-01-29T10:56:24.183Z,19.10
2023-01-29T10:59:01.935Z,23.20
2023-01-29T11:01:34.827Z,17.80
2023-01-29T11:04:11.856Z,17.85
2023-01-29T11:06:44.865Z,18.27
2023-01-29T11:09:37.785Z,23.60
2023-01-29T11:12:26.739Z,13.48
2023-01-29T11:15:07.170Z,18.42
2023-01-29T11:17:40.437Z,22.52
2023-01-29T11:20:28.181Z,23.75
2023-01-29T11:23:01.448Z,21.60
2023-01-29T11:25:33.993Z,21.05
2023-01-29T11:28:10.040Z,20.67
2023-01-29T11:30:43.155Z,25.13
2023-01-29T11:33:23.850Z,20.90
2023-01-29T11:38:30.850Z,16.83
2023-01-29T11:41:16.819Z,17.15
2023-01-29T11:43:49.626Z,20.42
2023-01-29T11:46:22.137Z,23.25
2023-01-29T11:48:59.342Z,18.77
2023-01-29T11:51:41.380Z,17.85
2023-01-29T11:54:19.825Z,20.70
2023-01-29T11:56:52.480Z,19.25
2023-01-29T11:59:48.977Z,17.23
2023-01-29T12:02:28.150Z,20.42
2023-01-29T12:05:05.938Z,19.85
2023-01-29T12:07:42.955Z,17.33
2023-01-29T12:10:36.243Z,12.25
2023-01-29T12:13:19.892Z,24.15
2023-01-29T12:16:21.131Z,20.48
2023-01-29T12:19:00.646Z,22.23
2023-01-29T12:21:45.499Z,26.20
2023-01-29T12:24:28.661Z,25.67
2023-01-29T12:27:22.669Z,21.27
2023-01-29T12:30:06.356Z,23.27
2023-01-29T12:32:51.521Z,24.13
2023-01-29T12:35:50.613Z,21.02
2023-01-29T12:38:24.508Z,18.60
2023-01-29T12:41:29.040Z,14.32
2023-01-29T12:44:13.680Z,15.45
2023-01-29T12:46:54.503Z,21.08
2023-01-29T12:49:30.827Z,21.27
2023-01-29T12:52:07.802Z,14.90
2023-01-29T12:54:54.987Z,19.08
2023-01-29T12:57:53.898Z,19.20
2023-01-29T13:00:40.067Z,25.65
2023-01-29T13:03:21.888Z,30.80
2023-01-29T13:06:06.881Z,34.20
2023-01-29T13:08:43.211Z,28.65
2023-01-29T13:11:34.464Z,37.95
2023-01-29T13:14:33.639Z,19.20
2023-01-29T13:17:24.736Z,33.10
2023-01-29T13:20:01.461Z,24.23
2023-01-29T13:22:38.378Z,30.33
2023-01-29T13:25:17.440Z,20.52
2023-01-29T13:27:50.890Z,23.60
2023-01-29T13:30:35.824Z,21.73
2023-01-29T13:33:16.797Z,29.77
2023-01-29T13:35:58.304Z,21.98
2023-01-29T13:38:33.444Z,28.50
2023-01-29T13:41:10.815Z,25.35
2023-01-29T13:43:48.700Z,22.55
2023-01-29T13:46:21.755Z,26.40
2023-01-29T13:48:58.248Z,19.42
2023-01-29T13:51:36.601Z,22.45
2023-01-29T13:54:20.310Z,27.70
2023-01-29T13:56:55.592Z,27.90
2023-01-29T13:59:53.970Z,29.95
2023-01-29T14:02:30.454Z,34.20
2023-01-29T14:05:31.590Z,19.70
2023-01-29T14:10:41.705Z,22.85
2023-01-29T14:13:20.016Z,28.23
2023-01-29T14:15:58.891Z,27.67
2023-01-29T14:18:34.038Z,25.85
2023-01-29T14:21:20.275Z,28.10
2023-01-29T14:23:56.735Z,20.65
2023-01-29T14:26:34.034Z,25.40
2023-01-29T14:29:14.501Z,26.23
2023-01-29T14:32:19.711Z,22.40
2023-01-29T14:34:56.823Z,19.25
2023-01-29T14:37:51.487Z,35.75
2023-01-29T14:40:26.240Z,28.17
2023-01-29T14:43:21.000Z,27.95
2023-01-29T14:46:39.825Z,25.20
2023-01-29T14:49:12.837Z,29.13
2023-01-29T14:51:46.083Z,28.35
2023-01-29T14:54:28.083Z,27.75
2023-01-29T14:57:05.669Z,29.52
2023-01-29T14:59:52.054Z,31.85
2023-01-29T15:02:33.820Z,26.85
2023-01-29T15:05:19.543Z,28.13
2023-01-29T15:08:17.969Z,29.48
2023-01-29T15:11:14.630Z,25.65
2023-01-29T15:14:18.084Z,21.95
2023-01-29T15:16:56.488Z,27.08
2023-01-29T15:19:36.378Z,23.45
2023-01-29T15:22:25.208Z,29.17
2023-01-29T15:25:15.627Z,35.30
2023-01-29T15:27:51.538Z,34.90
2023-01-29T15:30:33.223Z,31.05
2023-01-29T15:33:10.706Z,21.50
2023-01-29T15:35:43.707Z,26.38
2023-01-29T15:38:21.070Z,26.20
2023-01-29T15:41:15.067Z,32.30
2023-01-29T15:43:50.556Z,24.08
2023-01-29T15:46:28.160Z,29.00
2023-01-29T15:49:05.861Z,29.00
2023-01-29T15:51:39.357Z,23.27
2023-01-29T15:54:15.985Z,27.33
2023-01-29T15:56:51.421Z,25.85
2023-01-29T15:59:29.409Z,28.75
2023-01-29T16:02:23.728Z,29.67
2023-01-29T16:04:56.859Z,25.25
2023-01-29T16:07:29.897Z,31.88
2023-01-29T16:10:03.641Z,23.40
2023-01-29T16:12:36.367Z,23.25
2023-01-29T16:15:20.255Z,26.33
2023-01-29T16:17:53.210Z,21.23
2023-01-29T16:20:41.393Z,28.65
2023-01-29T16:23:29.612Z,23.33
2023-01-29T16:26:07.240Z,21.67
2023-01-29T16:28:44.636Z,32.67
2023-01-29T16:31:29.112Z,25.13
2023-01-29T16:34:15.473Z,21.98
2023-01-29T16:36:49.693Z,25.38
2023-01-29T16:39:29.117Z,28.35
2023-01-29T16:42:12.407Z,26.52
2023-01-29T16:44:58.183Z,31.58
2023-01-29T16:47:31.417Z,22.98
2023-01-29T16:50:27.033Z,28.35
2023-01-29T16:52:59.842Z,25.85
2023-01-29T16:55:42.675Z,29.20
2023-01-29T16:58:28.242Z,29.98
2023-01-29T17:01:02.785Z,25.70
2023-01-29T17:03:37.425Z,28.88
2023-01-29T17:06:20.619Z,18.60
2023-01-29T17:08:54.351Z,25.80
2023-01-29T17:11:50.348Z,24.05
2023-01-29T17:14:25.778Z,33.40
2023-01-29T17:17:15.502Z,27.13
2023-01-29T17:19:48.516Z,23.40
2023-01-29T17:22:20.994Z,25.77
2023-01-29T17:24:53.806Z,22.77
2023-01-29T17:27:26.713Z,25.77
2023-01-29T17:29:59.747Z,28.73
2023-01-29T17:32:44.028Z,31.88
2023-01-29T17:35:19.581Z,27.33
2023-01-29T17:37:52.462Z,27.63
2023-01-29T17:40:40.198Z,25.88
2023-01-29T17:43:12.867Z,28.52
2023-01-29T17:45:46.337Z,28.70
2023-01-29T17:48:29.294Z,28.60
2023-01-29T17:51:04.653Z,27.95
2023-01-29T17:53:45.180Z,31.45
2023-01-29T17:56:29.323Z,25.05
2023-01-29T17:59:02.060Z,27.33
2023-01-29T18:01:34.878Z,24.65
2023-01-29T18:04:08.204Z,25.35
2023-01-29T18:06:42.745Z,23.67
2023-01-29T18:09:18.838Z,33.80
2023-01-29T18:11:51.904Z,30.05
2023-01-29T18:14:24.393Z,28.88
2023-01-29T18:16:57.433Z,21.13
2023-01-29T18:19:33.638Z,15.73
2023-01-29T18:22:06.629Z,23.48
2023-01-29T18:24:39.104Z,28.88
2023-01-29T18:27:11.979Z,24.42
2023-01-29T18:29:44.513Z,25.38
2023-01-29T18:32:17.275Z,22.60
2023-01-29T18:34:49.802Z,24.80
2023-01-29T18:37:22.564Z,26.77
2023-01-29T18:39:55.637Z,22.13
2023-01-29T18:42:33.026Z,23.30
2023-01-29T18:45:06.347Z,29.55
2023-01-29T18:47:40.013Z,27.10
2023-01-29T18:50:12.664Z,27.38
2023-01-29T18:52:45.546Z,23.67
2023-01-29T18:55:18.401Z,31.13
2023-01-29T18:58:26.771Z,28.08
2023-01-29T19:00:47.960Z,22.90
2023-01-29T19:03:20.743Z,28.63
2023-01-29T19:05:53.289Z,26.58
2023-01-29T19:08:26.263Z,28.60
2023-01-29T19:11:04.029Z,27.55
2023-01-29T19:13:37.175Z,23.52
2023-01-29T19:16:11.175Z,24.38
2023-01-29T19:18:43.997Z,26.35
2023-01-29T19:21:16.892Z,24.08
2023-01-29T19:23:49.619Z,28.77
2023-01-29T19:26:22.250Z,27.95
2023-01-29T19:28:55.027Z,22.50
2023-01-29T19:31:27.871Z,28.60
2023-01-29T19:34:00.743Z,29.15
2023-01-29T19:36:33.228Z,28.13
2023-01-29T19:39:05.984Z,23.98
2023-01-29T19:41:38.623Z,28.60
2023-01-29T19:44:11.784Z,32.03
2023-01-29T19:46:44.300Z,29.88
2023-01-29T19:49:17.068Z,32.72
2023-01-29T19:51:49.566Z,23.95
2023-01-29T19:54:22.474Z,23.65
2023-01-29T19:56:55.353Z,27.25
2023-01-29T19:59:28.107Z,23.30
2023-01-29T20:02:00.683Z,22.55
2023-01-29T20:04:33.669Z,31.05
2023-01-29T20:07:06.149Z,21.63
2023-01-29T20:09:39.182Z,20.42
2023-01-29T20:12:13.151Z,24.38
2023-01-29T20:14:48.919Z,21.15
2023-01-29T20:17:21.668Z,22.42
2023-01-29T20:19:54.913Z,20.38
2023-01-29T20:22:27.434Z,15.40
2023-01-29T20:25:00.189Z,18.83
2023-01-29T20:27:32.828Z,19.13
2023-01-29T20:30:06.034Z,26.33
2023-01-29T20:32:48.132Z,21.55
2023-01-29T20:35:20.984Z,25.17
2023-01-29T20:37:53.569Z,21.85
2023-01-29T20:40:26.620Z,18.88
2023-01-29T20:42:59.230Z,23.13
2023-01-29T20:45:33.050Z,20.83
2023-01-29T20:48:06.787Z,19.08
2023-01-29T20:50:39.642Z,21.45
2023-01-29T20:53:12.131Z,17.20
2023-01-29T20:55:45.447Z,20.05
2023-01-29T20:58:18.004Z,19.20
2023-01-29T21:00:50.821Z,22.13
2023-01-29T21:03:23.330Z,21.40
2023-01-29T21:05:59.122Z,28.25
2023-01-29T21:08:31.895Z,21.98
2023-01-29T21:11:09.314Z,22.33
2023-01-29T21:13:44.012Z,27.92
2023-01-29T21:16:16.948Z,24.25
2023-01-29T21:18:49.705Z,21.15
2023-01-29T21:21:22.802Z,16.80
2023-01-29T21:23:55.344Z,23.90
2023-01-29T21:26:28.175Z,22.85
2023-01-29T21:29:00.724Z,21.58
2023-01-29T21:31:33.994Z,18.67
2023-01-29T21:34:06.685Z,24.52
2023-01-29T21:36:39.576Z,17.25
2023-01-29T21:39:20.911Z,21.98
2023-01-29T21:42:12.452Z,19.77
2023-01-29T21:44:45.022Z,14.55
2023-01-29T21:47:17.821Z,21.90
2023-01-29T21:49:50.348Z,21.63
2023-01-29T21:52:23.209Z,19.58
2023-01-29T21:54:55.713Z,23.02
2023-01-29T21:57:28.566Z,22.95
2023-01-29T22:00:01.118Z,21.73
2023-01-29T22:02:34.041Z,15.73
2023-01-29T22:05:18.831Z,26.17
2023-01-29T22:07:52.700Z,22.20
2023-01-29T22:10:25.384Z,23.10
2023-01-29T22:13:00.105Z,21.30
2023-01-29T22:15:32.610Z,22.75
2023-01-29T22:18:05.496Z,21.50
2023-01-29T22:20:37.988Z,22.10
2023-01-29T22:23:12.561Z,19.73
2023-01-29T22:25:45.056Z,25.33
2023-01-29T22:28:18.666Z,16.50
2023-01-29T22:30:51.236Z,20.17
2023-01-29T22:33:24.029Z,14.18
2023-01-29T22:35:57.004Z,14.52
2023-01-29T22:38:30.077Z,19.42
2023-01-29T22:41:02.567Z,18.23
2023-01-29T22:43:35.342Z,18.13
2023-01-29T22:46:11.902Z,21.67
2023-01-29T22:48:45.815Z,18.80
2023-01-29T22:51:18.423Z,19.00
2023-01-29T22:53:56.545Z,21.48
2023-01-29T22:56:32.050Z,20.00
2023-01-29T22:59:04.805Z,21.17
2023-01-29T23:01:37.330Z,21.70
2023-01-29T23:04:10.131Z,24.23
2023-01-29T23:06:42.696Z,17.85
2023-01-29T23:09:15.440Z,27.35
2023-01-29T23:11:47.957Z,18.17
2023-01-29T23:14:20.765Z,24.67
2023-01-29T23:16:53.258Z,21.20
2023-01-29T23:19:27.157Z,20.45
2023-01-29T23:21:59.667Z,24.73
2023-01-29T23:24:32.654Z,20.95
2023-01-29T23:27:17.370Z,23.70
2023-01-29T23:29:50.175Z,22.77
2023-01-29T23:32:22.760Z,12.38
2023-01-29T23:34:55.510Z,24.08
2023-01-29T23:37:28.059Z,26.30
2023-01-29T23:40:00.965Z,25.27
2023-01-29T23:42:33.483Z,22.67
2023-01-29T23:45:06.875Z,18.98
2023-01-29T23:47:39.338Z,32.38
2023-01-29T23:50:12.325Z,21.50
2023-01-29T23:52:44.807Z,21.95
2023-01-29T23:55:17.538Z,19.27
2023-01-29T23:57:49.994Z,18.27
